Aérodrome :
LOGIN :

S'inscrire | Disclaimer

   EN    FR    IT 

 










Légende :    VFR   VFR Marginal   IFR   IFR Intensif   IFR Très Intensif
Visi : 
Plafond : 
>= 8 km
>= 3000ft
5 à 8 km
1000 à 3000 ft
1500m à 5 km
500 à 1000 ft
800 à 1500m
200 à 500 ft
< 800m
< 200 ft
Symboles :   Orages  Brouillard  Fortes neiges  Fortes précipitations  Vent > 20 kt
SIGMETs :   Divers  Orages  Givrage  Turbulence  Onde Orograph.  Cendres Volcan.







- Altitude de l'aérodrome : 776 ft
- Code IATA : RMS


ETAR - Ramstein Air Base

DERNIER METAR :
  • 230758Z 27011KT 9999 SCT200 22/15 A3003 RMK AO2A SLPNO T02160151 $

METARs EXPIRÉS :
  • 230658Z 27009KT 9999 FEW200 21/15 A3003 RMK AO2A SLP160 T02050148 $
  • 230558Z 27008KT 9999 SCT200 19/15 A3000 RMK AO2A SLP150 T01930149 10197 20154 52017 $

TAF AMD TAF ETAR
Valide du 23 à 07h jusqu'au 24 à 08h UTC


230749Z 2307/2408 27009KT 9999 FEW200 QNH2991INS
TEMPO 2310/2316 27015G20KT
BECMG 2317/2318 VRB06KT 9999 SKC QNH3001INS
BECMG 2405/2406 27012KT 9999 BKN030 QNH3005INS TX26/2315Z TN13/2403Z
Pas de NOTAMs connus pour ce terrain.



MET'MAP, la Météo Aéronautique d'un coup d'oeil ! - Copyright ORBIFLY Décembre 2007 - Disclaimer

ORBIFLY MET'MAP TEAM :

Programmation & Développement : Alexandra Zaïnal
Conception & Développement : Baudouin d'Aumeries
Co-Programmation & Développement : Marc-Olivier Méhu
Soutien technique & logistique : Manuel Goepfert

Contact : metmap@orbifly.com




SOURCES & CREDITS :

   NOAA